Time;durP1;ratioP1;P1;durP2;ratioP2;P2;SDS_P1;SDS_P2;PMS_P1;PMS_P2;Temp;Humidity;BMP_temperature;BMP_pressure;BME280_temperature;BME280_humidity;BME280_pressure;Samples;Min_cycle;Max_cycle;Signal;HPM_P1;HPM_P2
2021/12/06 00:00:39;;;;;;;47.35;21.90;;;4.10;91.10;;;;;;5012969;28;20032;-65
2021/12/06 00:03:09;;;;;;;44.88;21.08;;;4.10;91.10;;;;;;5017162;28;20032;-65
2021/12/06 00:05:35;;;;;;;45.38;21.13;;;4.10;91.10;;;;;;5012689;28;20026;-66
2021/12/06 00:08:02;;;;;;;41.58;19.83;;;4.10;91.20;;;;;;5016687;28;20030;-66
2021/12/06 00:10:28;;;;;;;49.25;22.17;;;4.10;91.10;;;;;;5018168;28;20028;-65
2021/12/06 00:12:54;;;;;;;43.70;21.25;;;4.10;91.00;;;;;;5014207;28;20390;-66
2021/12/06 00:15:20;;;;;;;48.58;22.10;;;4.10;91.00;;;;;;5014216;28;20726;-65
2021/12/06 00:17:45;;;;;;;47.13;20.70;;;4.10;91.00;;;;;;5008870;28;20029;-65
2021/12/06 00:20:13;;;;;;;48.53;23.45;;;4.10;91.00;;;;;;5016543;28;20029;-65
2021/12/06 00:22:40;;;;;;;47.33;21.80;;;4.00;91.20;;;;;;5016811;28;20069;-66
2021/12/06 00:25:08;;;;;;;43.90;19.55;;;4.10;91.10;;;;;;5016347;28;20052;-65
2021/12/06 00:27:34;;;;;;;47.53;21.27;;;4.10;91.20;;;;;;5010802;28;20037;-65
2021/12/06 00:29:59;;;;;;;46.50;21.67;;;4.00;91.00;;;;;;5004260;28;20036;-65
2021/12/06 00:32:26;;;;;;;50.00;20.75;;;4.00;91.20;;;;;;5005808;28;20033;-65
2021/12/06 00:34:52;;;;;;;46.20;21.67;;;4.00;91.20;;;;;;5020760;28;20025;-65
2021/12/06 00:37:21;;;;;;;44.28;20.10;;;4.00;91.20;;;;;;5017401;28;20030;-65
2021/12/06 00:39:52;;;;;;;43.60;20.33;;;4.00;91.30;;;;;;5014146;28;20037;-65
2021/12/06 00:42:20;;;;;;;47.28;21.20;;;4.10;91.20;;;;;;4996039;28;20041;-65
2021/12/06 00:44:45;;;;;;;43.42;19.67;;;4.10;91.40;;;;;;5012671;28;20033;-65
2021/12/06 00:47:11;;;;;;;44.22;20.02;;;4.10;91.40;;;;;;4991306;28;20052;-65
2021/12/06 00:49:37;;;;;;;47.80;21.70;;;4.10;91.40;;;;;;4997315;28;20121;-65
2021/12/06 00:52:04;;;;;;;43.65;19.70;;;4.10;91.10;;;;;;4995636;28;20037;-65
2021/12/06 00:54:34;;;;;;;44.90;20.33;;;4.10;91.20;;;;;;4996985;28;20561;-65
2021/12/06 00:57:05;;;;;;;45.53;18.67;;;4.00;91.20;;;;;;4992391;28;20036;-65
2021/12/06 00:59:31;;;;;;;46.50;19.80;;;4.10;91.20;;;;;;5012795;28;20033;-66
2021/12/06 01:02:00;;;;;;;46.22;20.30;;;4.10;91.20;;;;;;5017152;28;20029;-65
2021/12/06 01:04:33;;;;;;;49.08;20.40;;;4.10;91.20;;;;;;4999460;28;20029;-65
2021/12/06 01:06:59;;;;;;;49.10;20.33;;;4.10;91.00;;;;;;5014137;28;20045;-65
2021/12/06 01:09:24;;;;;;;43.40;19.20;;;4.10;91.10;;;;;;5018202;28;20038;-65
2021/12/06 01:11:51;;;;;;;47.80;21.08;;;4.10;91.10;;;;;;5015800;28;20037;-65
2021/12/06 01:14:18;;;;;;;47.05;20.38;;;4.10;91.20;;;;;;4999326;28;20042;-65
2021/12/06 01:16:44;;;;;;;49.90;18.40;;;4.10;91.20;;;;;;5016029;28;20445;-65
2021/12/06 01:19:10;;;;;;;45.20;20.45;;;4.10;91.20;;;;;;4996367;28;20421;-65
2021/12/06 01:21:47;;;;;;;47.55;20.90;;;4.20;91.20;;;;;;5003136;28;20029;-65
2021/12/06 01:24:16;;;;;;;49.80;20.17;;;4.10;91.20;;;;;;5016033;28;20025;-64
2021/12/06 01:27:05;;;;;;;43.20;19.50;;;4.20;91.20;;;;;;5013709;28;20458;-65
2021/12/06 01:32:10;;;;;;;43.35;19.50;;;4.10;90.90;;;;;;5002202;28;20060;-65
2021/12/06 01:40:09;;;;;;;42.17;18.52;;;4.10;91.20;;;;;;5013036;28;20037;-65
2021/12/06 01:42:35;;;;;;;45.53;20.35;;;4.10;91.20;;;;;;5003616;28;20025;-65
2021/12/06 01:45:03;;;;;;;40.75;18.17;;;4.10;91.20;;;;;;4982739;28;20103;-65
2021/12/06 01:47:33;;;;;;;48.90;19.42;;;4.10;91.30;;;;;;5002088;28;20030;-65
2021/12/06 01:50:06;;;;;;;42.22;18.23;;;4.10;91.30;;;;;;4992335;28;20156;-65
2021/12/06 01:52:53;;;;;;;42.47;18.70;;;4.00;91.30;;;;;;5003985;28;20040;-66
2021/12/06 01:55:22;;;;;;;41.72;17.70;;;4.10;91.20;;;;;;5013792;28;20030;-65
2021/12/06 01:57:48;;;;;;;39.55;18.50;;;4.10;91.10;;;;;;5011152;28;20072;-65
2021/12/06 02:00:23;;;;;;;41.60;19.35;;;4.10;91.00;;;;;;4996596;28;20026;-66
2021/12/06 02:02:55;;;;;;;40.05;17.25;;;4.10;91.20;;;;;;5000530;28;20030;-64
2021/12/06 02:05:28;;;;;;;39.85;17.27;;;4.10;91.10;;;;;;4998002;28;20033;-66
2021/12/06 02:07:54;;;;;;;37.67;17.75;;;4.10;91.00;;;;;;5009132;28;20033;-67
2021/12/06 02:10:21;;;;;;;37.50;16.98;;;4.10;90.90;;;;;;4988504;28;20034;-65
2021/12/06 02:12:50;;;;;;;38.80;18.30;;;4.20;90.90;;;;;;5002080;28;20030;-65
2021/12/06 02:15:40;;;;;;;38.70;17.13;;;4.10;91.00;;;;;;4997865;28;20524;-66
2021/12/06 02:18:16;;;;;;;38.30;16.63;;;4.10;90.90;;;;;;4993615;28;20061;-66
2021/12/06 02:20:51;;;;;;;40.20;17.33;;;4.10;91.00;;;;;;5006854;28;20060;-65
2021/12/06 02:23:18;;;;;;;35.47;17.30;;;4.10;90.90;;;;;;5012330;28;20650;-65
2021/12/06 02:25:44;;;;;;;41.65;18.20;;;4.00;90.80;;;;;;4996462;28;20454;-66
2021/12/06 02:28:10;;;;;;;37.97;16.73;;;4.10;91.00;;;;;;5013559;28;20029;-65
2021/12/06 02:30:36;;;;;;;36.17;15.73;;;4.10;90.80;;;;;;5002996;28;20833;-66
2021/12/06 02:33:02;;;;;;;34.08;16.98;;;4.00;90.80;;;;;;4991408;28;20095;-66
2021/12/06 02:35:31;;;;;;;35.38;16.17;;;4.00;90.90;;;;;;5003717;28;20397;-65
2021/12/06 02:38:02;;;;;;;33.55;15.43;;;3.90;90.90;;;;;;4994796;28;20193;-65
2021/12/06 02:40:31;;;;;;;32.85;14.85;;;3.90;90.90;;;;;;4995184;28;20025;-65
2021/12/06 02:42:59;;;;;;;33.22;14.68;;;3.90;91.10;;;;;;5003393;28;20168;-66
2021/12/06 02:45:26;;;;;;;36.45;17.90;;;3.80;91.00;;;;;;5017644;28;20037;-65
2021/12/06 02:47:58;;;;;;;35.55;16.75;;;3.80;90.80;;;;;;4997599;28;20040;-65
2021/12/06 02:50:36;;;;;;;32.67;15.93;;;3.80;91.10;;;;;;4995392;28;20065;-65
2021/12/06 02:53:02;;;;;;;34.72;15.52;;;3.70;91.10;;;;;;5018514;28;20048;-65
2021/12/06 02:55:36;;;;;;;32.97;15.82;;;3.70;91.30;;;;;;5002630;28;20025;-65
2021/12/06 02:58:20;;;;;;;30.17;15.38;;;3.70;91.20;;;;;;5000942;28;20030;-65
2021/12/06 03:00:53;;;;;;;33.22;15.40;;;3.60;91.30;;;;;;5004075;28;20065;-65
2021/12/06 03:03:21;;;;;;;32.20;15.05;;;3.60;91.30;;;;;;5010986;28;20077;-65
2021/12/06 03:05:50;;;;;;;30.88;15.10;;;3.60;91.30;;;;;;4999336;28;20374;-65
2021/12/06 03:08:33;;;;;;;31.55;14.07;;;3.50;91.30;;;;;;5005053;28;20034;-65
2021/12/06 03:10:59;;;;;;;31.27;14.45;;;3.50;91.50;;;;;;4999543;28;20030;-65
2021/12/06 03:13:24;;;;;;;27.98;14.23;;;3.50;91.50;;;;;;4996519;28;20030;-64
2021/12/06 03:15:50;;;;;;;28.50;14.35;;;3.40;91.50;;;;;;5016592;28;21006;-65
2021/12/06 03:18:16;;;;;;;26.23;14.52;;;3.40;91.50;;;;;;4998901;28;20060;-65
2021/12/06 03:20:42;;;;;;;30.17;14.45;;;3.30;91.50;;;;;;4992789;28;20044;-65
2021/12/06 03:23:07;;;;;;;31.08;13.32;;;3.30;91.50;;;;;;4996951;28;20034;-66
2021/12/06 03:25:33;;;;;;;28.80;14.80;;;3.30;91.50;;;;;;5004583;28;20033;-65
2021/12/06 03:28:03;;;;;;;30.90;15.02;;;3.20;91.30;;;;;;5016573;28;20045;-65
2021/12/06 03:30:30;;;;;;;27.38;13.48;;;3.10;91.40;;;;;;5013815;28;20026;-65
2021/12/06 03:32:58;;;;;;;30.52;14.48;;;3.10;91.40;;;;;;4994969;28;20065;-65
2021/12/06 03:35:24;;;;;;;29.45;13.75;;;3.10;91.50;;;;;;5005505;28;20200;-65
2021/12/06 03:37:50;;;;;;;30.35;14.38;;;3.10;91.40;;;;;;5002826;28;20029;-65
2021/12/06 03:40:16;;;;;;;27.95;13.77;;;3.00;91.40;;;;;;4997105;28;20048;-65
2021/12/06 03:42:43;;;;;;;30.25;12.95;;;3.00;91.50;;;;;;5009531;28;20033;-65
2021/12/06 03:45:11;;;;;;;29.35;14.15;;;3.00;91.50;;;;;;4979662;28;20747;-64
2021/12/06 03:47:37;;;;;;;28.08;12.90;;;2.90;91.50;;;;;;5004313;28;20508;-66
2021/12/06 03:50:07;;;;;;;28.42;13.27;;;2.90;91.50;;;;;;5004672;28;20033;-65
2021/12/06 03:52:34;;;;;;;25.63;13.05;;;2.80;91.60;;;;;;5005960;28;20033;-65
2021/12/06 03:55:04;;;;;;;27.63;13.45;;;2.80;91.80;;;;;;4995188;28;20030;-65
2021/12/06 03:57:30;;;;;;;29.95;12.98;;;2.70;91.90;;;;;;4998244;28;20548;-65
2021/12/06 03:59:57;;;;;;;24.70;12.80;;;2.60;92.00;;;;;;4976393;28;20248;-65
2021/12/06 04:02:27;;;;;;;26.92;13.02;;;2.60;92.00;;;;;;5000551;28;20037;-65
2021/12/06 04:04:54;;;;;;;26.77;13.05;;;2.60;92.00;;;;;;5003481;28;20072;-65
2021/12/06 04:07:23;;;;;;;24.27;13.50;;;2.60;92.10;;;;;;5001436;28;20236;-66
2021/12/06 04:09:49;;;;;;;23.65;12.35;;;2.50;92.20;;;;;;5004191;28;20095;-67
2021/12/06 04:12:16;;;;;;;22.98;11.55;;;2.50;92.20;;;;;;4994298;28;20030;-66
2021/12/06 04:14:43;;;;;;;27.60;14.32;;;2.50;92.30;;;;;;5011648;28;20433;-67
2021/12/06 04:17:13;;;;;;;26.17;12.10;;;2.50;92.40;;;;;;5001043;28;20028;-67
2021/12/06 04:19:42;;;;;;;29.60;13.05;;;2.50;92.50;;;;;;5020366;28;20033;-67
2021/12/06 04:22:08;;;;;;;32.20;14.43;;;2.50;92.60;;;;;;4992884;28;20072;-67
2021/12/06 04:24:35;;;;;;;29.13;13.40;;;2.40;92.90;;;;;;5003347;28;20033;-67
2021/12/06 04:27:12;;;;;;;29.00;12.80;;;2.40;92.60;;;;;;4997860;28;20059;-67
2021/12/06 04:29:40;;;;;;;27.35;13.68;;;2.50;92.60;;;;;;5003291;28;20621;-67
2021/12/06 04:32:07;;;;;;;33.92;15.07;;;2.50;92.50;;;;;;5002923;28;20124;-67
2021/12/06 04:34:33;;;;;;;32.38;15.50;;;2.50;92.30;;;;;;4996777;28;20045;-66
2021/12/06 04:36:58;;;;;;;28.10;14.25;;;2.60;92.30;;;;;;4996263;28;20021;-67
2021/12/06 04:39:26;;;;;;;29.23;14.50;;;2.70;92.40;;;;;;4997044;28;20789;-66
2021/12/06 04:41:53;;;;;;;33.53;16.00;;;2.70;92.40;;;;;;4990670;28;20073;-67
2021/12/06 04:44:19;;;;;;;34.90;15.45;;;2.80;92.30;;;;;;5018052;28;20092;-65
2021/12/06 04:46:46;;;;;;;36.10;17.10;;;2.90;92.10;;;;;;5016218;28;20160;-66
2021/12/06 04:49:13;;;;;;;31.55;15.48;;;2.90;92.10;;;;;;5001706;28;20035;-65
2021/12/06 04:51:43;;;;;;;35.85;16.67;;;2.90;92.00;;;;;;4993687;28;20094;-65
2021/12/06 04:54:10;;;;;;;33.58;15.77;;;2.90;92.00;;;;;;4992853;28;20029;-67
2021/12/06 04:56:41;;;;;;;37.30;18.38;;;2.90;92.00;;;;;;5004481;28;20520;-67
2021/12/06 04:59:16;;;;;;;34.15;16.30;;;3.00;92.00;;;;;;4996877;28;20099;-65
2021/12/06 05:01:45;;;;;;;34.53;16.97;;;3.00;91.80;;;;;;4998541;28;20057;-67
2021/12/06 05:04:19;;;;;;;38.58;17.88;;;3.00;91.80;;;;;;5011842;28;20351;-68
2021/12/06 05:06:50;;;;;;;37.95;18.10;;;3.00;92.10;;;;;;4998063;28;20037;-65
2021/12/06 05:09:22;;;;;;;34.47;16.33;;;3.00;91.90;;;;;;5013331;28;20030;-65
2021/12/06 05:11:47;;;;;;;37.53;16.95;;;3.00;91.60;;;;;;5006522;28;20026;-65
2021/12/06 05:14:14;;;;;;;32.90;17.15;;;2.90;91.60;;;;;;5012717;28;20087;-66
2021/12/06 05:16:40;;;;;;;35.88;16.95;;;2.90;91.70;;;;;;4989895;28;20025;-66
2021/12/06 05:19:06;;;;;;;36.85;16.60;;;2.80;91.70;;;;;;4997163;28;20560;-66
2021/12/06 05:21:34;;;;;;;39.75;17.88;;;2.70;91.80;;;;;;4993192;28;20038;-67
2021/12/06 05:24:02;;;;;;;34.97;18.00;;;2.70;91.90;;;;;;4988120;28;20785;-67
2021/12/06 05:26:28;;;;;;;37.67;18.25;;;2.70;92.00;;;;;;5017680;28;20045;-67
2021/12/06 05:29:00;;;;;;;35.63;17.25;;;2.70;91.90;;;;;;4998957;28;20030;-67
2021/12/06 05:31:27;;;;;;;35.13;17.55;;;2.70;92.00;;;;;;4998028;28;20059;-67
2021/12/06 05:34:00;;;;;;;32.65;15.68;;;2.70;92.00;;;;;;5004246;28;20033;-67
2021/12/06 05:36:26;;;;;;;39.65;18.05;;;2.70;92.10;;;;;;5012267;28;20037;-67
2021/12/06 05:38:53;;;;;;;36.53;17.23;;;2.70;92.00;;;;;;5013764;28;20176;-65
2021/12/06 05:41:20;;;;;;;38.20;16.50;;;2.70;92.00;;;;;;5014244;28;20063;-64
2021/12/06 05:43:46;;;;;;;33.38;16.67;;;2.70;92.00;;;;;;5004514;28;20033;-65
2021/12/06 05:46:12;;;;;;;37.83;17.05;;;2.70;92.20;;;;;;5014706;28;20083;-64
2021/12/06 05:48:38;;;;;;;38.38;18.10;;;2.70;92.30;;;;;;5015196;28;20079;-67
2021/12/06 05:51:04;;;;;;;36.22;16.73;;;2.70;92.20;;;;;;5010343;28;20029;-66
2021/12/06 05:53:29;;;;;;;37.08;16.20;;;2.70;92.20;;;;;;5011365;28;20025;-66
2021/12/06 05:55:55;;;;;;;34.55;17.35;;;2.70;92.30;;;;;;5015756;28;20589;-67
2021/12/06 05:58:26;;;;;;;45.15;19.15;;;2.80;92.20;;;;;;5017076;28;20065;-67
2021/12/06 06:00:54;;;;;;;39.55;18.52;;;2.80;92.20;;;;;;5014422;28;20109;-67
2021/12/06 06:03:20;;;;;;;40.38;18.90;;;2.80;92.10;;;;;;5013346;28;20026;-65
2021/12/06 06:05:46;;;;;;;39.15;18.55;;;2.90;92.00;;;;;;5014952;28;20717;-67
2021/12/06 06:08:12;;;;;;;34.97;17.30;;;2.90;91.90;;;;;;5016906;28;20025;-70
2021/12/06 06:10:38;;;;;;;37.72;18.02;;;2.90;91.90;;;;;;5023577;28;20671;-65
2021/12/06 06:13:06;;;;;;;35.10;16.65;;;2.90;91.90;;;;;;5011825;28;20030;-66
2021/12/06 06:15:32;;;;;;;37.30;18.55;;;2.90;91.80;;;;;;5016264;28;20029;-66
2021/12/06 06:17:59;;;;;;;36.78;18.60;;;2.80;91.90;;;;;;5020682;28;20027;-66
2021/12/06 06:20:28;;;;;;;39.33;18.98;;;2.90;92.10;;;;;;5021431;28;20040;-66
2021/12/06 06:22:54;;;;;;;36.42;17.20;;;2.90;91.90;;;;;;5015587;28;20078;-66
2021/12/06 06:25:20;;;;;;;40.60;19.02;;;2.90;91.90;;;;;;5024414;28;20063;-65
2021/12/06 06:27:46;;;;;;;47.17;20.65;;;2.90;91.80;;;;;;5016204;28;20113;-66
2021/12/06 06:30:13;;;;;;;38.20;18.45;;;2.90;91.80;;;;;;5008869;28;20052;-66
2021/12/06 06:32:39;;;;;;;38.53;18.35;;;2.90;91.70;;;;;;5010466;28;20029;-66
2021/12/06 06:35:06;;;;;;;39.55;17.80;;;3.00;91.70;;;;;;5013362;28;20120;-66
2021/12/06 06:37:33;;;;;;;41.92;20.70;;;3.00;91.70;;;;;;5021139;28;20827;-65
2021/12/06 06:39:59;;;;;;;41.92;19.50;;;3.00;91.70;;;;;;5024333;28;20033;-65
2021/12/06 06:42:27;;;;;;;38.88;18.20;;;3.00;91.70;;;;;;5018719;28;20064;-66
2021/12/06 06:44:54;;;;;;;42.15;19.33;;;3.10;91.70;;;;;;5004037;28;20720;-65
2021/12/06 06:47:21;;;;;;;39.15;17.80;;;3.10;91.70;;;;;;5019070;28;20037;-65
2021/12/06 06:49:47;;;;;;;40.95;18.83;;;3.10;91.80;;;;;;5018692;28;20375;-66
2021/12/06 06:52:14;;;;;;;36.75;18.30;;;3.10;91.70;;;;;;5002936;28;20037;-65
2021/12/06 06:54:41;;;;;;;38.67;18.63;;;3.20;91.70;;;;;;5017245;28;20026;-65
2021/12/06 06:57:07;;;;;;;40.67;18.45;;;3.10;91.60;;;;;;5019441;28;20052;-65
2021/12/06 06:59:32;;;;;;;40.88;19.67;;;3.20;91.70;;;;;;5024639;28;20021;-65
2021/12/06 07:01:58;;;;;;;39.65;17.63;;;3.20;91.60;;;;;;5018511;28;20030;-66
2021/12/06 07:04:24;;;;;;;39.10;18.33;;;3.20;91.40;;;;;;5015438;28;20550;-66
2021/12/06 07:06:51;;;;;;;39.72;17.70;;;3.20;91.50;;;;;;5023703;28;20029;-66
2021/12/06 07:09:17;;;;;;;36.10;17.25;;;3.20;91.60;;;;;;5019522;28;20120;-68
2021/12/06 07:11:45;;;;;;;38.75;19.58;;;3.10;91.40;;;;;;5019108;28;20128;-66
2021/12/06 07:14:13;;;;;;;38.05;19.05;;;3.10;91.40;;;;;;5015126;28;20038;-66
2021/12/06 07:16:39;;;;;;;34.25;17.88;;;3.10;91.30;;;;;;5018211;28;20037;-65
2021/12/06 07:19:05;;;;;;;37.22;18.33;;;3.10;91.30;;;;;;5021882;28;20032;-66
2021/12/06 07:21:31;;;;;;;34.63;16.92;;;3.20;91.40;;;;;;5024848;28;20029;-66
2021/12/06 07:23:57;;;;;;;38.80;19.23;;;3.20;91.50;;;;;;5023902;28;20114;-66
2021/12/06 07:26:23;;;;;;;35.35;17.23;;;3.20;91.40;;;;;;5018715;28;20088;-66
2021/12/06 07:28:51;;;;;;;35.28;16.92;;;3.20;91.20;;;;;;5024008;28;20019;-66
2021/12/06 07:31:17;;;;;;;37.85;18.80;;;3.20;91.30;;;;;;5017098;28;20128;-66
2021/12/06 07:33:46;;;;;;;40.70;18.92;;;3.10;91.30;;;;;;5020501;28;20032;-65
2021/12/06 07:36:11;;;;;;;39.60;18.85;;;3.20;91.30;;;;;;5014046;28;20112;-65
2021/12/06 07:38:38;;;;;;;37.90;17.45;;;3.10;91.30;;;;;;5021933;28;20106;-66
2021/12/06 07:41:10;;;;;;;41.25;18.90;;;3.10;91.40;;;;;;5023530;28;20029;-65
2021/12/06 07:43:36;;;;;;;39.65;17.50;;;3.10;91.40;;;;;;5006117;28;20788;-66
2021/12/06 07:46:04;;;;;;;36.40;17.70;;;3.10;91.40;;;;;;5014966;28;20075;-66
2021/12/06 07:48:30;;;;;;;40.63;19.42;;;3.00;91.60;;;;;;5008616;28;20049;-65
2021/12/06 07:50:56;;;;;;;41.78;18.33;;;3.00;91.40;;;;;;4999023;28;20033;-65
2021/12/06 07:53:23;;;;;;;36.58;17.23;;;3.00;91.50;;;;;;5008847;28;20037;-66
2021/12/06 07:55:49;;;;;;;38.45;18.02;;;3.00;91.60;;;;;;5011443;28;20060;-65
2021/12/06 07:58:14;;;;;;;39.92;19.00;;;3.00;91.70;;;;;;5016331;28;20133;-66
2021/12/06 08:00:44;;;;;;;42.10;20.48;;;3.00;91.70;;;;;;5020761;28;20067;-66
2021/12/06 08:03:11;;;;;;;38.78;18.75;;;3.00;91.50;;;;;;5020519;28;20033;-66
2021/12/06 08:05:41;;;;;;;38.80;18.63;;;3.00;91.50;;;;;;5013447;28;20041;-67
2021/12/06 08:08:13;;;;;;;39.45;19.83;;;3.10;91.70;;;;;;5015087;28;20036;-66
2021/12/06 08:10:46;;;;;;;39.10;18.73;;;3.20;91.70;;;;;;5003012;28;20030;-66
2021/12/06 08:13:14;;;;;;;39.20;18.33;;;3.20;91.60;;;;;;5017527;28;20132;-66
2021/12/06 08:15:41;;;;;;;33.90;17.02;;;3.30;91.60;;;;;;5017363;28;20073;-66
2021/12/06 08:18:07;;;;;;;36.47;17.00;;;3.30;91.60;;;;;;5018936;28;20398;-66
2021/12/06 08:20:34;;;;;;;37.65;17.17;;;3.40;91.50;;;;;;5022032;28;20036;-66
2021/12/06 08:23:00;;;;;;;41.05;18.33;;;3.40;91.50;;;;;;5015830;28;20132;-67
2021/12/06 08:25:25;;;;;;;45.17;20.23;;;3.40;91.40;;;;;;5013116;28;20585;-67
2021/12/06 08:27:51;;;;;;;42.60;19.02;;;3.40;91.40;;;;;;5000184;28;20041;-66
2021/12/06 08:30:21;;;;;;;40.70;18.50;;;3.40;91.30;;;;;;5019199;28;20041;-68
2021/12/06 08:32:52;;;;;;;38.17;18.77;;;3.50;91.40;;;;;;5017928;28;20033;-68
2021/12/06 08:35:18;;;;;;;35.22;17.98;;;3.40;91.20;;;;;;5018039;28;20401;-68
2021/12/06 08:37:45;;;;;;;38.15;17.83;;;3.50;91.40;;;;;;5013174;28;20058;-67
2021/12/06 08:40:13;;;;;;;38.58;18.17;;;3.50;91.30;;;;;;5001098;28;20231;-67
2021/12/06 08:42:38;;;;;;;37.22;18.17;;;3.60;91.30;;;;;;5019936;28;20033;-68
2021/12/06 08:45:05;;;;;;;41.05;19.23;;;3.60;91.30;;;;;;4995535;28;20049;-67
2021/12/06 08:47:31;;;;;;;40.92;20.40;;;3.70;91.00;;;;;;5020569;28;20041;-68
2021/12/06 08:49:57;;;;;;;40.90;18.27;;;3.80;90.90;;;;;;5022248;28;20043;-68
2021/12/06 08:52:23;;;;;;;39.03;18.13;;;3.80;90.80;;;;;;4996128;28;20133;-68
2021/12/06 08:54:49;;;;;;;43.45;20.27;;;3.80;90.60;;;;;;5002028;28;20080;-68
2021/12/06 08:57:15;;;;;;;33.38;17.55;;;3.90;90.60;;;;;;5002016;28;20033;-68
2021/12/06 08:59:41;;;;;;;36.67;17.70;;;3.90;90.60;;;;;;5001966;28;20029;-68
2021/12/06 09:02:07;;;;;;;38.88;17.75;;;3.90;90.60;;;;;;5003664;28;20034;-68
2021/12/06 09:04:37;;;;;;;42.75;19.27;;;4.00;90.60;;;;;;5003357;28;20100;-67
2021/12/06 09:07:11;;;;;;;38.50;18.55;;;4.00;90.40;;;;;;5003272;28;20580;-69
2021/12/06 09:09:45;;;;;;;40.08;17.77;;;4.00;90.30;;;;;;5003036;28;20086;-68
2021/12/06 09:12:16;;;;;;;33.40;17.38;;;4.10;90.40;;;;;;5002136;28;20038;-67
2021/12/06 09:14:41;;;;;;;37.20;17.70;;;4.10;90.40;;;;;;5003021;28;20030;-72
2021/12/06 09:17:07;;;;;;;38.72;18.10;;;4.20;90.40;;;;;;5000395;28;20044;-65
2021/12/06 09:19:34;;;;;;;41.17;18.42;;;4.20;90.40;;;;;;5002075;28;20022;-68
2021/12/06 09:22:00;;;;;;;36.85;17.17;;;4.20;90.40;;;;;;5002994;28;20030;-68
2021/12/06 09:24:26;;;;;;;36.95;17.20;;;4.30;90.30;;;;;;5003091;28;20033;-68
2021/12/06 09:26:52;;;;;;;41.90;18.52;;;4.30;90.00;;;;;;5002975;28;20554;-70
2021/12/06 09:29:18;;;;;;;40.88;19.77;;;4.40;90.00;;;;;;5001093;28;20727;-68
2021/12/06 09:31:45;;;;;;;35.88;18.60;;;4.40;90.30;;;;;;5001774;28;20030;-68
2021/12/06 09:34:11;;;;;;;43.03;19.20;;;4.50;90.00;;;;;;5003202;28;20022;-68
2021/12/06 09:36:37;;;;;;;38.28;17.13;;;4.50;89.80;;;;;;5002657;28;20104;-68
2021/12/06 09:39:05;;;;;;;42.78;18.73;;;4.50;89.80;;;;;;5003436;28;20779;-69
2021/12/06 09:41:31;;;;;;;38.60;19.13;;;4.50;89.70;;;;;;5000930;28;20830;-68
2021/12/06 09:44:00;;;;;;;43.30;19.73;;;4.60;89.80;;;;;;5002402;28;20030;-69
2021/12/06 09:46:28;;;;;;;35.95;16.92;;;4.60;89.80;;;;;;5000583;28;20067;-68
2021/12/06 09:48:55;;;;;;;38.85;17.65;;;4.60;89.60;;;;;;5003002;28;20046;-68
2021/12/06 09:51:25;;;;;;;42.65;19.33;;;4.70;89.70;;;;;;4999471;28;20034;-68
2021/12/06 09:53:53;;;;;;;38.67;18.60;;;4.70;89.00;;;;;;5000751;28;20037;-69
2021/12/06 09:56:26;;;;;;;39.28;17.73;;;4.70;88.80;;;;;;5001528;28;20041;-67
2021/12/06 09:58:52;;;;;;;41.33;17.65;;;4.80;89.30;;;;;;5002493;28;20038;-69
2021/12/06 10:01:28;;;;;;;39.80;18.27;;;4.80;89.50;;;;;;5000465;28;20026;-66
2021/12/06 10:03:58;;;;;;;38.83;18.05;;;4.90;89.20;;;;;;5002711;28;20092;-68
2021/12/06 10:06:26;;;;;;;40.22;19.17;;;4.90;88.80;;;;;;5000930;28;20034;-67
2021/12/06 10:08:54;;;;;;;37.80;18.45;;;4.90;89.00;;;;;;5002976;28;20069;-66
2021/12/06 10:11:22;;;;;;;36.28;17.58;;;5.00;88.60;;;;;;5002217;28;20042;-67
2021/12/06 10:13:48;;;;;;;39.55;17.92;;;5.00;89.00;;;;;;5002853;28;20489;-67
2021/12/06 10:16:14;;;;;;;38.42;18.33;;;5.10;88.20;;;;;;5002684;28;20069;-67
2021/12/06 10:18:40;;;;;;;39.83;19.42;;;5.10;88.00;;;;;;5002722;28;20117;-67
2021/12/06 10:21:07;;;;;;;40.40;19.73;;;5.10;88.00;;;;;;4996357;28;20041;-67
2021/12/06 10:23:37;;;;;;;40.03;19.05;;;5.10;87.50;;;;;;5001319;28;20034;-67
2021/12/06 10:26:04;;;;;;;39.78;18.50;;;5.10;86.70;;;;;;5001473;28;20095;-67
2021/12/06 10:28:31;;;;;;;40.78;19.50;;;5.10;87.30;;;;;;4999876;28;20518;-68
2021/12/06 10:31:01;;;;;;;43.95;17.20;;;5.10;86.90;;;;;;5002468;28;20034;-67
2021/12/06 10:33:32;;;;;;;39.83;18.65;;;5.10;87.80;;;;;;5000189;28;20041;-68
2021/12/06 10:36:04;;;;;;;33.03;16.80;;;5.20;87.70;;;;;;5002471;28;20445;-68
2021/12/06 10:38:33;;;;;;;35.50;17.15;;;5.10;86.50;;;;;;4999729;28;20041;-67
2021/12/06 10:41:03;;;;;;;41.85;18.58;;;5.20;87.20;;;;;;5002363;28;20077;-67
2021/12/06 10:43:30;;;;;;;37.88;18.13;;;5.20;87.40;;;;;;5001064;28;20042;-67
2021/12/06 10:45:56;;;;;;;37.78;19.02;;;5.20;87.30;;;;;;5002584;28;20116;-67
2021/12/06 10:48:28;;;;;;;51.08;24.52;;;5.20;87.20;;;;;;5002283;28;20140;-67
2021/12/06 10:50:54;;;;;;;46.90;22.83;;;5.30;87.00;;;;;;5002366;28;20117;-68
2021/12/06 10:53:59;;;;;;;108.75;41.00;;;5.30;87.30;;;;;;5002286;28;20516;-68
2021/12/06 10:56:36;;;;;;;54.13;23.30;;;5.30;86.40;;;;;;5002491;28;20040;-67
2021/12/06 10:59:09;;;;;;;40.55;19.40;;;5.30;87.40;;;;;;5001641;28;20070;-68
2021/12/06 11:01:35;;;;;;;38.30;17.13;;;5.30;86.70;;;;;;5002173;28;20034;-67
2021/12/06 11:04:04;;;;;;;46.10;19.33;;;5.30;87.40;;;;;;5005913;28;20041;-68
2021/12/06 11:06:41;;;;;;;47.90;19.98;;;5.30;87.50;;;;;;5002122;28;20045;-68
2021/12/06 11:09:07;;;;;;;35.45;17.35;;;5.30;87.20;;;;;;5003983;28;20038;-68
2021/12/06 11:11:41;;;;;;;39.85;17.95;;;5.40;86.90;;;;;;5004022;28;20125;-68
2021/12/06 11:14:11;;;;;;;39.30;18.25;;;5.40;85.00;;;;;;5004654;28;20541;-68
2021/12/06 11:16:43;;;;;;;41.17;18.92;;;5.40;86.00;;;;;;5005541;28;20034;-66
2021/12/06 11:19:14;;;;;;;38.53;18.50;;;5.30;85.60;;;;;;4998005;28;20034;-66
2021/12/06 11:21:46;;;;;;;38.88;17.85;;;5.40;85.00;;;;;;4987484;28;20037;-66
2021/12/06 11:24:48;;;;;;;39.97;18.50;;;5.40;85.90;;;;;;5002850;28;20076;-67
2021/12/06 11:27:27;;;;;;;37.40;18.02;;;5.30;86.40;;;;;;4952978;28;20107;-67
2021/12/06 11:30:05;;;;;;;38.95;18.42;;;5.40;86.90;;;;;;5003639;28;20124;-67
2021/12/06 11:32:43;;;;;;;41.75;18.38;;;5.30;86.30;;;;;;5005210;28;20145;-68
2021/12/06 11:35:28;;;;;;;38.35;17.80;;;5.40;86.70;;;;;;5004521;28;20033;-67
2021/12/06 11:38:02;;;;;;;36.67;17.05;;;5.50;85.50;;;;;;5001790;28;20076;-67
2021/12/06 11:40:38;;;;;;;33.65;15.80;;;5.40;84.80;;;;;;5003714;28;20371;-67
2021/12/06 11:43:11;;;;;;;36.35;17.65;;;5.40;85.40;;;;;;5004663;28;20033;-67
2021/12/06 11:45:39;;;;;;;39.05;18.08;;;5.40;84.50;;;;;;5001728;28;20034;-67
2021/12/06 11:48:11;;;;;;;37.38;16.95;;;5.40;84.20;;;;;;5001073;28;20044;-68
2021/12/06 11:50:47;;;;;;;37.10;17.08;;;5.40;84.30;;;;;;5000599;28;20030;-67
2021/12/06 11:53:15;;;;;;;33.45;17.20;;;5.40;84.50;;;;;;4998610;28;20379;-67
2021/12/06 11:55:56;;;;;;;34.15;16.10;;;5.30;85.10;;;;;;5000124;28;20440;-68
2021/12/06 11:58:24;;;;;;;39.10;17.25;;;5.40;85.00;;;;;;4999440;28;20061;-67
2021/12/06 12:01:23;;;;;;;33.97;15.68;;;5.50;84.90;;;;;;5003062;28;20034;-67
2021/12/06 12:03:55;;;;;;;34.00;16.25;;;5.40;84.60;;;;;;4978064;28;20041;-67
2021/12/06 12:06:33;;;;;;;36.85;16.77;;;5.50;85.30;;;;;;4999134;28;20123;-72
2021/12/06 12:09:04;;;;;;;35.20;16.55;;;5.60;86.30;;;;;;5001895;28;20564;-67
2021/12/06 12:11:30;;;;;;;36.67;17.33;;;5.70;86.10;;;;;;5004028;28;20069;-67
2021/12/06 12:13:57;;;;;;;32.55;16.80;;;5.80;84.90;;;;;;5003602;28;20053;-67
2021/12/06 12:16:24;;;;;;;36.63;16.25;;;5.80;83.70;;;;;;4999635;28;20073;-67
2021/12/06 12:18:50;;;;;;;32.30;15.23;;;5.70;83.80;;;;;;4997712;28;20040;-67
2021/12/06 12:21:16;;;;;;;34.83;16.63;;;5.70;83.60;;;;;;5001280;28;20022;-67
2021/12/06 12:23:42;;;;;;;38.72;17.83;;;5.70;83.80;;;;;;4997638;28;20034;-67
2021/12/06 12:26:15;;;;;;;34.08;16.08;;;5.60;83.30;;;;;;4997962;28;20041;-67
2021/12/06 12:28:51;;;;;;;34.53;16.95;;;5.70;83.20;;;;;;4998179;28;20774;-67
2021/12/06 12:31:20;;;;;;;35.03;16.20;;;5.70;83.80;;;;;;4995061;28;20056;-67
2021/12/06 12:33:48;;;;;;;37.42;17.95;;;5.60;85.50;;;;;;4995038;28;20030;-67
2021/12/06 12:36:18;;;;;;;34.97;17.63;;;5.70;85.40;;;;;;4999632;28;20108;-68
2021/12/06 12:38:47;;;;;;;31.60;16.70;;;5.80;85.10;;;;;;4999735;28;20500;-67
2021/12/06 12:41:17;;;;;;;37.25;17.33;;;5.80;85.00;;;;;;5003362;28;20029;-67
2021/12/06 12:43:47;;;;;;;34.80;15.98;;;5.90;85.10;;;;;;5003726;28;20037;-68
2021/12/06 12:46:30;;;;;;;31.95;16.88;;;5.90;85.30;;;;;;5002453;28;20040;-67
2021/12/06 12:48:59;;;;;;;35.88;16.92;;;5.80;85.20;;;;;;5002669;28;20133;-67
2021/12/06 12:51:34;;;;;;;34.72;16.50;;;5.80;85.60;;;;;;5002396;28;20033;-70